createdAt,value
2023-04-24T00:02:03.957Z,94.75
2023-04-24T00:04:32.592Z,94.92
2023-04-24T00:07:00.640Z,94.41
2023-04-24T00:09:28.514Z,94.74
2023-04-24T00:11:56.731Z,94.70
2023-04-24T00:14:23.928Z,94.96
2023-04-24T00:16:51.121Z,95.14
2023-04-24T00:19:21.714Z,94.75
2023-04-24T00:21:50.600Z,94.63
2023-04-24T00:24:18.782Z,94.92
2023-04-24T00:26:45.824Z,94.77
2023-04-24T00:29:13.891Z,94.83
2023-04-24T00:31:41.011Z,94.55
2023-04-24T00:34:08.293Z,94.11
2023-04-24T00:36:35.852Z,93.74
2023-04-24T00:39:03.106Z,93.64
2023-04-24T00:41:30.473Z,93.57
2023-04-24T00:43:57.624Z,93.54
2023-04-24T00:46:25.429Z,93.61
2023-04-24T00:48:54.267Z,94.17
2023-04-24T00:51:21.619Z,94.58
2023-04-24T00:53:48.771Z,94.99
2023-04-24T00:56:16.311Z,95.78
2023-04-24T00:58:43.990Z,95.77
2023-04-24T01:01:12.284Z,96.84
2023-04-24T01:03:39.822Z,97.22
2023-04-24T01:06:07.690Z,96.92
2023-04-24T01:08:35.359Z,96.80
2023-04-24T01:11:04.878Z,96.64
2023-04-24T01:13:32.631Z,96.32
2023-04-24T01:16:00.986Z,96.01
2023-04-24T01:18:28.418Z,95.97
2023-04-24T01:20:58.186Z,96.05
2023-04-24T01:23:25.528Z,95.82
2023-04-24T01:25:52.674Z,95.58
2023-04-24T01:28:20.335Z,95.57
2023-04-24T01:30:47.587Z,95.33
2023-04-24T01:33:14.941Z,95.22
2023-04-24T01:35:42.213Z,95.20
2023-04-24T01:38:09.753Z,95.44
2023-04-24T01:40:37.220Z,95.40
2023-04-24T01:43:04.256Z,95.21
2023-04-24T01:45:31.786Z,95.14
2023-04-24T01:47:59.331Z,94.83
2023-04-24T01:50:26.623Z,95.17
2023-04-24T01:52:54.088Z,95.27
2023-04-24T01:55:21.233Z,95.18
2023-04-24T01:57:48.504Z,95.87
2023-04-24T02:00:15.772Z,95.60
2023-04-24T02:02:45.662Z,95.23
2023-04-24T02:05:14.862Z,94.98
2023-04-24T02:07:42.632Z,94.70
2023-04-24T02:10:10.600Z,94.63
2023-04-24T02:12:43.362Z,94.70
2023-04-24T02:15:11.439Z,94.66
2023-04-24T02:17:38.914Z,94.84
2023-04-24T02:20:07.712Z,95.06
2023-04-24T02:22:35.449Z,95.04
2023-04-24T02:25:02.694Z,95.02
2023-04-24T02:27:30.869Z,94.82
2023-04-24T02:29:58.139Z,94.42
2023-04-24T02:32:25.798Z,94.28
2023-04-24T02:34:53.059Z,94.16
2023-04-24T02:37:20.390Z,93.99
2023-04-24T02:39:47.680Z,93.92
2023-04-24T02:42:15.915Z,93.84
2023-04-24T02:44:43.373Z,94.07
2023-04-24T02:47:10.519Z,94.59
2023-04-24T02:49:37.771Z,95.09
2023-04-24T02:52:05.024Z,95.44
2023-04-24T02:54:32.307Z,95.18
2023-04-24T02:56:59.540Z,94.87
2023-04-24T02:59:27.807Z,94.90
2023-04-24T03:01:55.264Z,94.86
2023-04-24T03:04:23.198Z,94.47
2023-04-24T03:06:53.347Z,94.17
2023-04-24T03:09:24.228Z,93.71
2023-04-24T03:11:51.438Z,93.37
2023-04-24T03:14:19.422Z,92.91
2023-04-24T03:16:46.655Z,92.68
2023-04-24T03:19:13.841Z,92.74
2023-04-24T03:21:54.167Z,93.27
2023-04-24T03:24:21.324Z,93.85
2023-04-24T03:26:49.905Z,93.88
2023-04-24T03:29:30.306Z,93.69
2023-04-24T03:31:58.579Z,93.47
2023-04-24T03:34:26.403Z,93.52
2023-04-24T03:36:53.962Z,93.73
2023-04-24T03:39:22.019Z,93.90
2023-04-24T03:41:55.208Z,94.34
2023-04-24T03:44:27.919Z,94.25
2023-04-24T03:46:55.775Z,94.68
2023-04-24T03:49:23.948Z,94.84
2023-04-24T03:51:53.173Z,94.33
2023-04-24T03:54:23.500Z,94.43
2023-04-24T03:56:51.651Z,94.60
2023-04-24T03:59:18.932Z,94.41
2023-04-24T04:01:49.276Z,94.38
2023-04-24T04:04:17.971Z,94.46
2023-04-24T04:06:47.115Z,94.17
2023-04-24T04:09:14.557Z,94.23
2023-04-24T04:11:41.890Z,94.34
2023-04-24T04:14:09.484Z,94.34
2023-04-24T04:16:40.235Z,94.62
2023-04-24T04:19:08.065Z,94.64
2023-04-24T04:21:35.991Z,94.11
2023-04-24T04:24:14.757Z,94.43
2023-04-24T04:26:47.743Z,94.60
2023-04-24T04:29:23.254Z,94.44
2023-04-24T04:31:51.297Z,94.07
2023-04-24T04:34:20.150Z,94.16
2023-04-24T04:36:47.418Z,94.13
2023-04-24T04:39:35.545Z,94.27
2023-04-24T04:42:07.318Z,94.22
2023-04-24T04:44:40.390Z,94.21
2023-04-24T04:47:09.487Z,94.22
2023-04-24T04:49:42.047Z,93.97
2023-04-24T04:52:14.169Z,94.13
2023-04-24T04:54:41.802Z,93.61
2023-04-24T04:57:09.657Z,93.04
2023-04-24T04:59:37.767Z,93.30
2023-04-24T05:02:07.969Z,92.45
2023-04-24T05:04:36.849Z,91.79
2023-04-24T05:07:04.541Z,91.52
2023-04-24T05:09:33.873Z,91.19
2023-04-24T05:12:04.438Z,90.54
2023-04-24T05:14:34.244Z,90.15
2023-04-24T05:17:01.685Z,88.74
2023-04-24T05:19:29.421Z,87.79
2023-04-24T05:21:56.622Z,86.78
2023-04-24T05:24:24.298Z,85.21
2023-04-24T05:27:13.221Z,83.58
2023-04-24T05:29:41.723Z,83.76
2023-04-24T05:32:10.004Z,82.71
2023-04-24T05:34:37.400Z,81.01
2023-04-24T05:37:08.740Z,80.40
2023-04-24T05:39:37.779Z,79.32
2023-04-24T05:42:05.562Z,78.33
2023-04-24T05:44:32.742Z,77.79
2023-04-24T05:47:02.435Z,77.16
2023-04-24T05:49:29.981Z,77.09
2023-04-24T05:58:06.294Z,73.08
2023-04-24T06:00:35.798Z,71.04
2023-04-24T06:03:05.727Z,69.66
2023-04-24T06:05:33.227Z,68.68
2023-04-24T06:08:00.522Z,67.74
2023-04-24T06:10:33.005Z,66.60
2023-04-24T06:13:01.912Z,64.30
2023-04-24T06:15:31.906Z,62.51
2023-04-24T06:18:04.845Z,60.70
2023-04-24T06:20:32.205Z,59.10
2023-04-24T06:23:00.541Z,58.01
2023-04-24T06:25:28.794Z,57.10
2023-04-24T06:27:57.998Z,56.47
2023-04-24T06:30:25.373Z,55.06
2023-04-24T06:32:52.771Z,54.65
2023-04-24T06:35:21.596Z,53.16
2023-04-24T06:37:48.936Z,51.55
2023-04-24T06:40:16.206Z,50.98
2023-04-24T06:42:43.867Z,49.86
2023-04-24T06:45:11.925Z,48.89
2023-04-24T06:47:39.494Z,47.73
2023-04-24T06:50:08.233Z,49.11
2023-04-24T06:52:35.740Z,48.83
2023-04-24T06:55:05.499Z,48.89
2023-04-24T06:57:35.049Z,48.59
2023-04-24T07:00:02.975Z,46.35
2023-04-24T07:02:30.920Z,46.39
2023-04-24T07:04:59.802Z,47.02
2023-04-24T07:07:30.029Z,46.59
2023-04-24T07:09:58.932Z,46.63
2023-04-24T07:12:26.557Z,46.08
2023-04-24T07:14:53.994Z,43.93
2023-04-24T07:17:21.607Z,43.47
2023-04-24T07:19:48.725Z,46.13
2023-04-24T07:22:18.152Z,45.71
2023-04-24T07:24:45.795Z,44.14
2023-04-24T07:27:13.443Z,42.72
2023-04-24T07:29:41.768Z,40.82
2023-04-24T07:32:10.400Z,45.36
2023-04-24T07:34:37.966Z,47.36
2023-04-24T07:37:05.131Z,45.39
2023-04-24T07:39:33.294Z,43.76
2023-04-24T07:42:00.637Z,45.71
2023-04-24T07:44:27.934Z,46.62
2023-04-24T07:46:55.255Z,45.54
2023-04-24T07:49:22.592Z,44.71
2023-04-24T07:51:50.684Z,43.80
2023-04-24T07:54:17.923Z,42.12
2023-04-24T07:56:45.077Z,41.90
2023-04-24T07:59:12.435Z,41.81
2023-04-24T08:01:39.785Z,42.54
2023-04-24T08:04:07.278Z,41.39
2023-04-24T08:06:35.098Z,41.36
2023-04-24T08:09:02.354Z,42.60
2023-04-24T08:11:29.700Z,42.87
2023-04-24T08:13:57.359Z,42.89
2023-04-24T08:16:25.688Z,44.33
2023-04-24T08:18:54.450Z,45.40
2023-04-24T08:21:22.400Z,44.44
2023-04-24T08:23:49.763Z,44.88
2023-04-24T08:26:16.906Z,45.70
2023-04-24T08:28:44.075Z,45.77
2023-04-24T08:31:11.474Z,46.30
2023-04-24T08:33:38.672Z,48.31
2023-04-24T08:36:06.559Z,50.43
2023-04-24T08:38:34.082Z,50.70
2023-04-24T08:41:02.157Z,51.00
2023-04-24T08:43:29.411Z,50.58
2023-04-24T08:45:58.887Z,53.73
2023-04-24T08:48:31.310Z,53.16
2023-04-24T08:51:00.214Z,53.37
2023-04-24T08:53:27.653Z,52.32
2023-04-24T08:55:56.672Z,52.80
2023-04-24T08:58:28.718Z,51.41
2023-04-24T09:00:56.862Z,50.29
2023-04-24T09:03:25.581Z,50.57
2023-04-24T09:05:53.123Z,50.53
2023-04-24T09:08:20.767Z,50.30
2023-04-24T09:10:50.562Z,50.67
2023-04-24T09:13:20.345Z,50.63
2023-04-24T09:15:48.195Z,51.43
2023-04-24T09:18:15.912Z,52.22
2023-04-24T09:21:07.853Z,50.95
2023-04-24T09:23:36.358Z,48.84
2023-04-24T09:26:08.408Z,49.41
2023-04-24T09:28:37.823Z,50.26
2023-04-24T09:31:06.181Z,50.54
2023-04-24T09:33:33.658Z,50.67
2023-04-24T09:36:01.697Z,51.04
2023-04-24T09:38:36.329Z,51.70
2023-04-24T09:41:04.929Z,51.68
2023-04-24T09:43:32.307Z,51.43
2023-04-24T09:46:00.419Z,51.01
2023-04-24T09:48:37.870Z,51.07
2023-04-24T09:51:08.146Z,51.61
2023-04-24T09:53:35.260Z,51.90
2023-04-24T09:56:13.584Z,51.11
2023-04-24T09:58:40.671Z,51.58
2023-04-24T10:01:07.771Z,51.56
2023-04-24T10:03:35.152Z,51.68
2023-04-24T10:06:02.957Z,51.82
2023-04-24T10:08:37.095Z,51.92
2023-04-24T10:11:04.251Z,52.43
2023-04-24T10:13:31.355Z,51.71
2023-04-24T10:15:58.605Z,51.00
2023-04-24T10:18:26.013Z,50.70
2023-04-24T10:20:53.136Z,50.85
2023-04-24T10:23:20.445Z,51.11
2023-04-24T10:25:47.720Z,50.59
2023-04-24T10:28:15.508Z,50.46
2023-04-24T10:30:43.843Z,50.82
2023-04-24T10:33:11.367Z,51.54
2023-04-24T10:35:46.971Z,53.07
2023-04-24T10:38:14.748Z,54.98
2023-04-24T10:40:42.438Z,54.77
2023-04-24T10:43:12.064Z,54.77
2023-04-24T10:45:39.767Z,56.07
2023-04-24T10:48:12.435Z,55.99
2023-04-24T10:50:54.964Z,55.45
2023-04-24T10:53:27.995Z,56.19
2023-04-24T10:56:08.616Z,55.79
2023-04-24T10:58:41.401Z,54.77
2023-04-24T11:01:08.670Z,54.25
2023-04-24T11:03:36.541Z,54.57
2023-04-24T11:06:09.063Z,53.96
2023-04-24T11:08:46.189Z,53.63
2023-04-24T11:11:17.893Z,52.96
2023-04-24T11:13:57.083Z,52.97
2023-04-24T11:16:24.766Z,53.59
2023-04-24T11:19:05.293Z,53.85
2023-04-24T11:22:04.072Z,53.52
2023-04-24T11:24:39.262Z,53.46
2023-04-24T11:27:19.266Z,53.27
2023-04-24T11:29:46.526Z,53.63
2023-04-24T11:32:24.643Z,54.09
2023-04-24T11:34:56.935Z,53.83
2023-04-24T11:37:29.993Z,53.72
2023-04-24T11:39:58.742Z,53.20
2023-04-24T11:42:26.651Z,53.30
2023-04-24T11:44:54.609Z,53.42
2023-04-24T11:47:22.188Z,54.04
2023-04-24T11:49:51.677Z,54.98
2023-04-24T11:52:19.124Z,54.47
2023-04-24T11:54:51.298Z,54.43
2023-04-24T11:57:22.846Z,53.70
2023-04-24T11:59:50.956Z,54.04
2023-04-24T12:02:28.468Z,54.10
2023-04-24T12:04:56.364Z,53.95
2023-04-24T12:07:24.322Z,54.45
2023-04-24T12:09:59.300Z,53.84
2023-04-24T12:12:29.706Z,52.78
2023-04-24T12:14:58.278Z,52.37
2023-04-24T12:17:30.439Z,51.79
2023-04-24T12:20:08.355Z,51.10
2023-04-24T12:22:49.291Z,50.46
2023-04-24T12:25:17.723Z,50.10
2023-04-24T12:27:45.574Z,49.84
2023-04-24T12:30:16.968Z,49.69
2023-04-24T12:32:50.794Z,48.98
2023-04-24T12:35:22.090Z,48.59
2023-04-24T12:37:49.204Z,48.19
2023-04-24T12:40:16.956Z,47.55
2023-04-24T12:42:45.793Z,47.63
2023-04-24T12:45:15.574Z,49.05
2023-04-24T12:47:43.229Z,48.71
2023-04-24T12:50:11.731Z,49.55
2023-04-24T12:52:38.987Z,49.46
2023-04-24T12:55:09.193Z,49.76
2023-04-24T12:57:37.700Z,49.73
2023-04-24T13:00:07.875Z,50.37
2023-04-24T13:02:35.265Z,49.89
2023-04-24T13:05:02.794Z,49.57
2023-04-24T13:07:30.070Z,49.89
2023-04-24T13:09:57.163Z,50.44
2023-04-24T13:12:25.160Z,51.07
2023-04-24T13:14:52.336Z,50.36
2023-04-24T13:17:19.661Z,49.87
2023-04-24T13:19:47.318Z,50.04
2023-04-24T13:22:14.629Z,49.96
2023-04-24T13:24:42.790Z,49.47
2023-04-24T13:27:10.338Z,49.74
2023-04-24T13:29:38.091Z,49.36
2023-04-24T13:32:05.294Z,49.64
2023-04-24T13:34:32.630Z,49.84
2023-04-24T13:37:00.254Z,49.99
2023-04-24T13:39:27.632Z,50.00
2023-04-24T13:41:55.305Z,50.16
2023-04-24T13:44:22.638Z,50.15
2023-04-24T13:46:50.749Z,50.46
2023-04-24T13:49:18.558Z,51.35
2023-04-24T13:51:46.843Z,52.22
2023-04-24T13:54:14.257Z,51.68
2023-04-24T13:56:42.057Z,51.15
2023-04-24T13:59:09.968Z,51.46
2023-04-24T14:01:37.162Z,51.34
2023-04-24T14:04:04.510Z,51.22
2023-04-24T14:06:32.368Z,51.20
2023-04-24T14:08:59.518Z,51.66
2023-04-24T14:11:26.791Z,51.80
2023-04-24T14:13:54.035Z,51.83
2023-04-24T14:16:21.199Z,51.28
2023-04-24T14:18:48.380Z,51.30
2023-04-24T14:21:15.627Z,51.03
2023-04-24T14:23:43.039Z,50.86
2023-04-24T14:26:10.447Z,51.37
2023-04-24T14:28:37.587Z,51.33
2023-04-24T14:31:04.785Z,51.09
2023-04-24T14:33:32.163Z,50.99
2023-04-24T14:35:59.783Z,51.30
2023-04-24T14:38:27.210Z,51.78
2023-04-24T14:43:24.633Z,52.33
2023-04-24T14:45:52.196Z,52.11
2023-04-24T14:48:19.909Z,51.93
2023-04-24T14:50:47.484Z,51.92
2023-04-24T14:53:15.602Z,51.91
2023-04-24T14:55:42.757Z,52.03
2023-04-24T14:58:10.092Z,52.24
2023-04-24T15:00:37.349Z,52.76
2023-04-24T15:03:05.102Z,52.72
2023-04-24T15:05:32.729Z,53.11
2023-04-24T15:08:00.170Z,53.47
2023-04-24T15:10:27.675Z,53.79
2023-04-24T15:12:55.393Z,54.12
2023-04-24T15:15:23.261Z,54.01
2023-04-24T15:17:51.288Z,53.79
2023-04-24T15:20:19.310Z,53.58
2023-04-24T15:22:47.173Z,53.70
2023-04-24T15:25:15.036Z,53.60
2023-04-24T15:27:43.776Z,53.85
2023-04-24T15:30:11.702Z,54.08
2023-04-24T15:32:39.333Z,53.79
2023-04-24T15:35:09.111Z,54.02
2023-04-24T15:37:39.210Z,53.85
2023-04-24T15:40:08.927Z,53.75
2023-04-24T15:42:36.966Z,54.03
2023-04-24T15:45:05.152Z,53.91
2023-04-24T15:47:33.529Z,53.77
2023-04-24T15:50:00.819Z,54.21
2023-04-24T15:52:28.506Z,54.44
2023-04-24T15:54:55.883Z,54.80
2023-04-24T15:57:23.527Z,54.74
2023-04-24T15:59:51.253Z,54.62
2023-04-24T16:02:21.478Z,54.32
2023-04-24T16:04:50.347Z,54.44
2023-04-24T16:07:18.483Z,54.62
2023-04-24T16:09:45.920Z,55.04
2023-04-24T16:12:13.577Z,55.20
2023-04-24T16:14:42.589Z,55.18
2023-04-24T16:17:13.003Z,55.48
2023-04-24T16:19:43.164Z,56.08
2023-04-24T16:22:13.903Z,58.84
2023-04-24T16:24:44.967Z,61.03
2023-04-24T16:27:16.501Z,61.15
2023-04-24T16:29:49.148Z,60.36
2023-04-24T16:32:21.189Z,60.42
2023-04-24T16:34:52.931Z,60.15
2023-04-24T16:37:22.506Z,60.32
2023-04-24T16:39:51.995Z,61.15
2023-04-24T16:42:23.058Z,61.85
2023-04-24T16:44:53.984Z,62.44
2023-04-24T16:47:25.245Z,62.90
2023-04-24T16:49:56.041Z,62.61
2023-04-24T16:52:27.008Z,62.68
2023-04-24T16:54:57.487Z,62.61
2023-04-24T16:57:27.961Z,62.11
2023-04-24T16:59:59.155Z,62.58
2023-04-24T17:02:29.622Z,62.82
2023-04-24T17:04:59.159Z,63.09
2023-04-24T17:07:29.970Z,63.16
2023-04-24T17:10:04.256Z,63.65
2023-04-24T17:18:42.262Z,64.45
2023-04-24T17:21:09.583Z,64.81
2023-04-24T17:23:38.372Z,65.36
2023-04-24T17:26:06.119Z,65.07
2023-04-24T17:28:33.725Z,65.40
2023-04-24T17:31:00.880Z,65.39
2023-04-24T17:33:28.827Z,65.78
2023-04-24T17:35:59.152Z,65.88
2023-04-24T17:38:26.490Z,66.27
2023-04-24T17:40:54.237Z,66.18
2023-04-24T17:43:21.395Z,66.48
2023-04-24T17:45:50.672Z,67.11
2023-04-24T17:48:19.092Z,67.37
2023-04-24T17:50:46.642Z,67.67
2023-04-24T17:53:14.092Z,67.75
2023-04-24T17:55:43.917Z,67.91
2023-04-24T17:58:13.770Z,67.98
2023-04-24T18:00:41.734Z,68.79
2023-04-24T18:03:11.489Z,68.46
2023-04-24T18:05:39.426Z,69.10
2023-04-24T18:08:06.919Z,69.18
2023-04-24T18:10:37.056Z,69.59
2023-04-24T18:13:05.010Z,70.13
2023-04-24T18:15:32.673Z,70.73
2023-04-24T18:18:00.254Z,71.24
2023-04-24T18:20:27.785Z,71.31
2023-04-24T18:22:55.149Z,70.89
2023-04-24T18:25:27.118Z,70.80
2023-04-24T18:27:55.479Z,70.42
2023-04-24T18:30:25.570Z,70.17
2023-04-24T18:32:53.592Z,69.92
2023-04-24T18:35:21.382Z,69.69
2023-04-24T18:37:49.127Z,69.55
2023-04-24T18:40:16.864Z,69.67
2023-04-24T18:42:44.227Z,70.98
2023-04-24T18:45:14.620Z,72.72
2023-04-24T18:47:43.776Z,73.13
2023-04-24T18:50:12.764Z,73.29
2023-04-24T18:52:42.034Z,73.34
2023-04-24T18:55:10.207Z,73.27
2023-04-24T18:57:37.368Z,72.74
2023-04-24T19:00:06.340Z,73.43
2023-04-24T19:02:34.844Z,73.65
2023-04-24T19:05:03.131Z,74.29
2023-04-24T19:07:30.461Z,73.98
2023-04-24T19:09:57.556Z,74.50
2023-04-24T19:12:24.799Z,74.04
2023-04-24T19:14:52.762Z,73.75
2023-04-24T19:17:24.530Z,73.39
2023-04-24T19:19:52.350Z,73.28
2023-04-24T19:22:20.626Z,73.34
2023-04-24T19:24:47.845Z,73.38
2023-04-24T19:27:15.100Z,73.42
2023-04-24T19:29:42.255Z,73.76
2023-04-24T19:32:09.509Z,73.95
2023-04-24T19:34:38.377Z,74.25
2023-04-24T19:37:07.988Z,74.34
2023-04-24T19:39:35.067Z,74.20
2023-04-24T19:42:05.717Z,74.19
2023-04-24T19:44:34.781Z,74.26
2023-04-24T19:47:01.973Z,74.03
2023-04-24T19:49:30.360Z,74.05
2023-04-24T19:51:57.435Z,74.15
2023-04-24T19:54:25.297Z,74.08
2023-04-24T19:56:52.301Z,73.91
2023-04-24T19:59:19.439Z,74.22
2023-04-24T20:01:47.121Z,73.84
2023-04-24T20:04:14.555Z,73.96
2023-04-24T20:06:41.892Z,73.96
2023-04-24T20:09:08.996Z,73.73
2023-04-24T20:11:36.733Z,73.94
2023-04-24T20:14:03.958Z,73.85
2023-04-24T20:16:31.455Z,73.81
2023-04-24T20:18:58.963Z,74.39
2023-04-24T20:21:26.857Z,75.04
2023-04-24T20:23:54.068Z,75.29
2023-04-24T20:26:21.650Z,75.25
2023-04-24T20:28:50.204Z,75.50
2023-04-24T20:31:17.892Z,76.14
2023-04-24T20:33:45.688Z,76.50
2023-04-24T20:36:12.776Z,76.67
2023-04-24T20:38:39.861Z,76.71
2023-04-24T20:41:08.995Z,76.66
2023-04-24T20:43:36.571Z,76.46
2023-04-24T20:46:04.298Z,76.77
2023-04-24T20:48:31.598Z,76.22
2023-04-24T20:51:02.064Z,75.79
2023-04-24T20:53:29.157Z,74.94
2023-04-24T20:55:56.309Z,74.62
2023-04-24T20:58:24.010Z,74.12
2023-04-24T21:00:53.008Z,74.06
2023-04-24T21:03:20.258Z,73.60
2023-04-24T21:05:47.527Z,73.53
2023-04-24T21:08:14.659Z,73.43
2023-04-24T21:10:41.927Z,74.01
2023-04-24T21:13:09.184Z,74.31
2023-04-24T21:15:36.794Z,74.60
2023-04-24T21:18:04.279Z,75.77
2023-04-24T21:20:31.344Z,76.52
2023-04-24T21:26:40.660Z,78.06
2023-04-24T21:29:07.713Z,78.40
2023-04-24T21:31:35.381Z,78.58
2023-04-24T21:34:04.072Z,79.04
2023-04-24T21:36:32.716Z,79.46
2023-04-24T21:39:00.311Z,79.98
2023-04-24T21:41:27.454Z,80.52
2023-04-24T21:43:55.071Z,80.80
2023-04-24T21:46:22.667Z,81.41
2023-04-24T21:48:50.143Z,81.68
2023-04-24T21:51:17.686Z,82.10
2023-04-24T21:53:45.071Z,82.20
2023-04-24T21:56:12.704Z,82.41
2023-04-24T21:58:40.064Z,82.74
2023-04-24T22:01:07.356Z,83.11
2023-04-24T22:03:34.847Z,83.39
2023-04-24T22:06:02.348Z,83.76
2023-04-24T22:08:29.683Z,83.33
2023-04-24T22:10:56.869Z,83.61
2023-04-24T22:13:24.400Z,84.00
2023-04-24T22:15:51.782Z,83.32
2023-04-24T22:18:19.235Z,82.84
2023-04-24T22:20:46.892Z,82.51
2023-04-24T22:23:14.227Z,82.05
2023-04-24T22:25:41.678Z,81.87
2023-04-24T22:28:09.033Z,81.73
2023-04-24T22:30:37.328Z,81.78
2023-04-24T22:33:05.098Z,81.84
2023-04-24T22:35:32.629Z,81.74
2023-04-24T22:38:00.185Z,81.48
2023-04-24T22:40:27.358Z,81.29
2023-04-24T22:42:54.588Z,81.33
2023-04-24T22:45:24.407Z,81.80
2023-04-24T22:47:52.195Z,82.76
2023-04-24T22:50:19.951Z,83.77
2023-04-24T22:52:47.287Z,84.16
2023-04-24T22:55:14.535Z,84.27
2023-04-24T22:57:42.028Z,84.05
2023-04-24T23:00:12.013Z,84.14
2023-04-24T23:02:39.462Z,84.12
2023-04-24T23:05:07.331Z,83.94
2023-04-24T23:07:35.404Z,84.28
2023-04-24T23:10:03.528Z,84.15
2023-04-24T23:12:31.137Z,84.26
2023-04-24T23:14:58.698Z,84.52
2023-04-24T23:17:25.862Z,84.45
2023-04-24T23:19:53.000Z,84.67
2023-04-24T23:22:20.248Z,84.80
2023-04-24T23:24:47.494Z,85.17
2023-04-24T23:27:14.757Z,85.20
2023-04-24T23:29:42.105Z,85.21
2023-04-24T23:32:09.399Z,85.42
2023-04-24T23:34:39.067Z,85.32
2023-04-24T23:37:06.940Z,85.08
2023-04-24T23:39:34.601Z,84.95
2023-04-24T23:42:02.472Z,84.97
2023-04-24T23:44:30.043Z,85.01
2023-04-24T23:46:59.326Z,85.11
2023-04-24T23:49:26.984Z,85.32
2023-04-24T23:51:54.237Z,85.40
2023-04-24T23:54:21.826Z,85.44
2023-04-24T23:56:49.355Z,85.32
2023-04-24T23:59:20.189Z,85.67
